createdAt,value
2022-11-30T00:01:31.839Z,10.55
2022-11-30T00:03:59.677Z,9.40
2022-11-30T00:06:27.397Z,9.82
2022-11-30T00:08:56.963Z,9.98
2022-11-30T00:11:27.230Z,9.38
2022-11-30T00:13:55.278Z,10.38
2022-11-30T00:16:23.333Z,9.75
2022-11-30T00:18:52.374Z,11.32
2022-11-30T00:21:20.074Z,9.57
2022-11-30T00:23:48.707Z,11.25
2022-11-30T00:26:19.647Z,9.10
2022-11-30T00:28:47.867Z,8.98
2022-11-30T00:31:17.984Z,8.63
2022-11-30T00:33:46.443Z,8.38
2022-11-30T00:36:17.001Z,7.25
2022-11-30T00:38:45.800Z,8.25
2022-11-30T00:41:14.126Z,8.30
2022-11-30T00:43:42.423Z,8.00
2022-11-30T00:46:11.201Z,7.55
2022-11-30T00:48:40.397Z,8.43
2022-11-30T00:51:09.886Z,8.60
2022-11-30T00:53:38.177Z,12.07
2022-11-30T00:56:07.495Z,8.77
2022-11-30T00:58:35.497Z,7.55
2022-11-30T01:01:03.967Z,7.68
2022-11-30T01:03:31.930Z,7.70
2022-11-30T01:06:08.315Z,7.38
2022-11-30T01:08:36.185Z,7.30
2022-11-30T01:11:12.605Z,10.10
2022-11-30T01:13:40.318Z,8.90
2022-11-30T01:16:15.972Z,7.30
2022-11-30T01:18:44.719Z,8.00
2022-11-30T01:21:16.432Z,7.63
2022-11-30T01:23:44.866Z,7.90
2022-11-30T01:26:13.043Z,7.10
2022-11-30T01:28:46.513Z,7.75
2022-11-30T01:31:14.879Z,6.45
2022-11-30T01:33:43.336Z,7.70
2022-11-30T01:36:16.688Z,6.65
2022-11-30T01:38:47.794Z,5.68
2022-11-30T01:41:21.992Z,9.00
2022-11-30T01:44:15.537Z,7.40
2022-11-30T01:46:57.285Z,8.43
2022-11-30T01:49:34.329Z,5.75
2022-11-30T01:52:04.813Z,5.17
2022-11-30T01:54:41.944Z,5.65
2022-11-30T01:57:20.169Z,6.38
2022-11-30T01:59:51.540Z,4.63
2022-11-30T02:02:24.277Z,5.32
2022-11-30T02:04:52.115Z,6.32
2022-11-30T02:07:20.045Z,5.45
2022-11-30T02:09:48.157Z,6.07
2022-11-30T02:12:30.189Z,6.43
2022-11-30T02:15:05.835Z,4.55
2022-11-30T02:17:48.681Z,4.47
2022-11-30T02:20:37.407Z,4.28
2022-11-30T02:23:20.481Z,4.47
2022-11-30T02:26:05.344Z,4.65
2022-11-30T02:28:57.710Z,5.65
2022-11-30T02:31:39.058Z,5.40
2022-11-30T02:34:09.956Z,4.18
2022-11-30T02:36:38.478Z,4.93
2022-11-30T02:39:07.375Z,4.85
2022-11-30T02:41:38.214Z,4.75
2022-11-30T02:44:09.839Z,3.30
2022-11-30T02:46:51.265Z,3.80
2022-11-30T02:49:31.875Z,4.43
2022-11-30T02:52:01.628Z,3.92
2022-11-30T02:54:29.700Z,4.28
2022-11-30T02:56:58.205Z,3.92
2022-11-30T02:59:26.047Z,3.30
2022-11-30T03:01:53.983Z,4.82
2022-11-30T03:04:21.730Z,4.53
2022-11-30T03:06:49.549Z,4.35
2022-11-30T03:09:17.255Z,4.18
2022-11-30T03:11:44.970Z,3.70
2022-11-30T03:14:13.874Z,3.63
2022-11-30T03:16:41.641Z,3.90
2022-11-30T03:19:09.488Z,4.25
2022-11-30T03:21:37.110Z,4.13
2022-11-30T03:24:04.875Z,3.95
2022-11-30T03:26:33.043Z,4.80
2022-11-30T03:29:00.938Z,4.40
2022-11-30T03:31:28.834Z,3.55
2022-11-30T03:33:56.842Z,4.20
2022-11-30T03:36:25.766Z,3.92
2022-11-30T03:38:53.616Z,3.50
2022-11-30T03:41:21.423Z,6.80
2022-11-30T03:43:49.252Z,3.65
2022-11-30T03:46:17.522Z,3.63
2022-11-30T03:48:45.332Z,3.50
2022-11-30T03:51:13.913Z,3.92
2022-11-30T03:53:42.436Z,3.25
2022-11-30T03:56:11.407Z,4.85
2022-11-30T03:58:39.246Z,3.20
2022-11-30T04:01:10.099Z,3.70
2022-11-30T04:03:38.937Z,3.70
2022-11-30T04:06:08.198Z,3.97
2022-11-30T04:08:36.591Z,4.63
2022-11-30T04:11:06.006Z,7.43
2022-11-30T04:13:35.867Z,7.13
2022-11-30T04:16:04.533Z,9.75
2022-11-30T04:18:33.645Z,9.45
2022-11-30T04:21:02.162Z,6.90
2022-11-30T04:23:32.201Z,6.20
2022-11-30T04:25:59.980Z,4.90
2022-11-30T04:28:27.794Z,4.80
2022-11-30T04:30:55.629Z,4.95
2022-11-30T04:33:23.864Z,4.53
2022-11-30T04:35:58.878Z,5.82
2022-11-30T04:38:27.269Z,3.72
2022-11-30T04:40:55.542Z,4.55
2022-11-30T04:43:23.876Z,4.28
2022-11-30T04:45:52.059Z,5.53
2022-11-30T04:48:20.303Z,4.38
2022-11-30T04:50:48.274Z,5.85
2022-11-30T04:53:17.803Z,5.68
2022-11-30T04:55:45.692Z,5.50
2022-11-30T04:58:13.332Z,4.68
2022-11-30T05:00:41.004Z,5.18
2022-11-30T05:03:08.714Z,5.15
2022-11-30T05:05:36.636Z,5.47
2022-11-30T05:08:04.415Z,4.63
2022-11-30T05:10:34.009Z,4.63
2022-11-30T05:13:01.676Z,4.25
2022-11-30T05:15:29.404Z,5.30
2022-11-30T05:18:01.883Z,5.47
2022-11-30T05:20:29.685Z,4.90
2022-11-30T05:22:57.663Z,6.18
2022-11-30T05:25:25.280Z,5.22
2022-11-30T05:27:53.047Z,5.22
2022-11-30T05:30:20.848Z,4.82
2022-11-30T05:32:48.615Z,6.05
2022-11-30T05:35:16.376Z,4.95
2022-11-30T05:37:44.251Z,7.25
2022-11-30T05:40:12.592Z,6.88
2022-11-30T05:42:40.401Z,6.15
2022-11-30T05:45:08.503Z,5.95
2022-11-30T05:47:36.681Z,5.90
2022-11-30T05:50:05.013Z,6.97
2022-11-30T05:52:32.920Z,6.70
2022-11-30T05:55:00.688Z,5.65
2022-11-30T05:57:28.889Z,7.75
2022-11-30T05:59:56.557Z,6.55
2022-11-30T06:02:28.141Z,6.13
2022-11-30T06:04:56.253Z,7.10
2022-11-30T06:07:24.162Z,5.80
2022-11-30T06:09:52.097Z,6.50
2022-11-30T06:12:19.796Z,7.65
2022-11-30T06:14:47.850Z,10.25
2022-11-30T06:17:15.904Z,8.45
2022-11-30T06:19:43.781Z,9.00
2022-11-30T06:22:11.379Z,9.75
2022-11-30T06:24:39.033Z,17.95
2022-11-30T06:27:06.804Z,38.50
2022-11-30T06:29:34.399Z,25.38
2022-11-30T06:32:02.417Z,22.77
2022-11-30T06:34:33.788Z,21.02
2022-11-30T06:37:01.563Z,16.35
2022-11-30T06:39:57.916Z,10.77
2022-11-30T06:44:44.802Z,13.60
2022-11-30T06:47:12.863Z,12.35
2022-11-30T06:49:40.820Z,10.82
2022-11-30T06:52:08.543Z,12.45
2022-11-30T06:54:36.339Z,12.75
2022-11-30T06:57:04.771Z,10.30
2022-11-30T06:59:32.637Z,7.13
2022-11-30T07:02:05.955Z,11.55
2022-11-30T07:04:36.024Z,7.72
2022-11-30T07:07:03.843Z,8.23
2022-11-30T07:09:33.644Z,7.32
2022-11-30T07:12:02.074Z,9.50
2022-11-30T07:14:31.029Z,9.32
2022-11-30T07:16:59.175Z,8.15
2022-11-30T07:19:27.019Z,7.13
2022-11-30T07:21:54.754Z,6.35
2022-11-30T07:24:42.025Z,9.40
2022-11-30T07:27:10.180Z,9.65
2022-11-30T07:29:37.967Z,8.52
2022-11-30T07:32:06.035Z,8.27
2022-11-30T07:34:35.496Z,8.90
2022-11-30T07:37:03.097Z,9.55
2022-11-30T07:39:33.810Z,11.90
2022-11-30T07:42:02.043Z,9.32
2022-11-30T07:44:29.788Z,10.10
2022-11-30T07:46:57.584Z,7.50
2022-11-30T07:49:25.363Z,7.13
2022-11-30T07:51:53.073Z,8.00
2022-11-30T07:54:20.818Z,6.70
2022-11-30T07:56:48.554Z,5.40
2022-11-30T07:59:16.195Z,7.90
2022-11-30T08:01:44.053Z,8.35
2022-11-30T08:04:14.477Z,5.75
2022-11-30T08:06:42.285Z,7.53
2022-11-30T08:09:17.825Z,7.55
2022-11-30T08:11:48.883Z,5.78
2022-11-30T08:14:16.719Z,7.25
2022-11-30T08:16:44.901Z,7.72
2022-11-30T08:19:12.509Z,5.97
2022-11-30T08:21:40.228Z,8.95
2022-11-30T08:24:13.367Z,7.43
2022-11-30T08:26:41.382Z,7.88
2022-11-30T08:29:11.788Z,9.32
2022-11-30T08:31:39.837Z,7.38
2022-11-30T08:34:11.386Z,7.85
2022-11-30T08:36:40.938Z,8.70
2022-11-30T08:39:11.425Z,7.00
2022-11-30T08:41:39.620Z,7.90
2022-11-30T08:44:07.632Z,8.48
2022-11-30T08:46:50.798Z,7.07
2022-11-30T08:49:22.908Z,5.43
2022-11-30T08:54:45.414Z,5.43
2022-11-30T08:57:16.179Z,6.07
2022-11-30T08:59:44.763Z,9.88
2022-11-30T09:02:17.032Z,11.52
2022-11-30T09:04:45.478Z,8.32
2022-11-30T09:07:13.515Z,10.65
2022-11-30T09:09:41.659Z,7.65
2022-11-30T09:12:09.439Z,10.65
2022-11-30T09:14:37.392Z,7.32
2022-11-30T09:17:05.102Z,7.68
2022-11-30T09:19:32.934Z,7.15
2022-11-30T09:22:00.767Z,9.25
2022-11-30T09:24:28.668Z,7.03
2022-11-30T09:26:59.997Z,8.77
2022-11-30T09:29:28.033Z,8.10
2022-11-30T09:31:56.268Z,6.75
2022-11-30T09:34:24.046Z,6.75
2022-11-30T09:36:52.081Z,6.22
2022-11-30T09:39:20.392Z,8.80
2022-11-30T09:42:14.447Z,8.30
2022-11-30T09:45:02.514Z,9.15
2022-11-30T09:47:57.669Z,10.00
2022-11-30T09:50:30.081Z,10.90
2022-11-30T09:53:02.955Z,9.07
2022-11-30T09:55:36.441Z,7.18
2022-11-30T09:58:06.462Z,9.48
2022-11-30T10:00:35.440Z,10.20
2022-11-30T10:03:06.081Z,6.68
2022-11-30T10:05:52.367Z,9.27
2022-11-30T10:09:21.657Z,8.50
2022-11-30T10:12:01.887Z,8.30
2022-11-30T10:14:37.600Z,8.07
2022-11-30T10:17:21.955Z,8.48
2022-11-30T10:20:28.773Z,8.65
2022-11-30T10:23:36.165Z,8.13
2022-11-30T10:26:12.316Z,5.40
2022-11-30T10:28:54.120Z,7.15
2022-11-30T10:31:33.631Z,10.82
2022-11-30T10:34:20.448Z,12.10
2022-11-30T10:36:55.394Z,21.42
2022-11-30T10:39:30.851Z,27.42
2022-11-30T10:42:14.956Z,31.65
2022-11-30T10:44:47.021Z,28.58
2022-11-30T10:47:22.613Z,20.92
2022-11-30T10:49:51.609Z,22.48
2022-11-30T10:52:26.667Z,20.17
2022-11-30T10:55:02.237Z,15.93
2022-11-30T10:57:32.775Z,13.48
2022-11-30T11:00:05.566Z,13.65
2022-11-30T11:02:39.232Z,14.93
2022-11-30T11:05:28.556Z,16.50
2022-11-30T11:08:06.509Z,15.90
2022-11-30T11:10:44.389Z,14.02
2022-11-30T11:13:20.039Z,16.83
2022-11-30T11:15:59.709Z,11.13
2022-11-30T11:18:32.980Z,11.50
2022-11-30T11:21:08.290Z,14.02
2022-11-30T11:23:41.644Z,11.80
2022-11-30T11:26:22.779Z,11.30
2022-11-30T11:28:52.909Z,8.90
2022-11-30T11:31:42.932Z,7.38
2022-11-30T11:34:26.210Z,7.40
2022-11-30T11:37:19.603Z,8.35
2022-11-30T11:40:08.641Z,8.93
2022-11-30T11:42:43.201Z,6.75
2022-11-30T11:45:36.687Z,7.28
2022-11-30T11:48:12.740Z,7.60
2022-11-30T11:53:51.538Z,8.38
2022-11-30T11:56:27.456Z,6.55
2022-11-30T11:59:21.094Z,9.10
2022-11-30T12:02:16.953Z,7.18
2022-11-30T12:04:48.546Z,7.47
2022-11-30T12:07:34.489Z,9.30
2022-11-30T12:10:52.530Z,5.88
2022-11-30T12:13:38.830Z,5.83
2022-11-30T12:16:15.791Z,6.80
2022-11-30T12:18:56.397Z,6.70
2022-11-30T12:21:42.335Z,8.27
2022-11-30T12:24:45.759Z,9.35
2022-11-30T12:27:28.044Z,8.00
2022-11-30T12:30:11.599Z,9.07
2022-11-30T12:33:05.166Z,7.18
2022-11-30T12:35:57.869Z,7.10
2022-11-30T12:38:37.710Z,8.88
2022-11-30T12:41:14.896Z,9.50
2022-11-30T12:46:40.168Z,8.43
2022-11-30T12:49:13.920Z,8.93
2022-11-30T12:52:08.127Z,6.05
2022-11-30T12:54:44.106Z,8.90
2022-11-30T12:57:19.483Z,8.88
2022-11-30T13:00:09.451Z,5.57
2022-11-30T13:03:10.282Z,9.13
2022-11-30T13:05:51.523Z,7.07
2022-11-30T13:08:26.562Z,6.47
2022-11-30T13:11:04.234Z,7.32
2022-11-30T13:13:36.333Z,8.73
2022-11-30T13:16:08.672Z,6.93
2022-11-30T13:18:37.581Z,8.13
2022-11-30T13:21:26.006Z,5.90
2022-11-30T13:24:10.279Z,5.03
2022-11-30T13:26:46.096Z,6.60
2022-11-30T13:29:18.300Z,9.20
2022-11-30T13:32:33.816Z,6.47
2022-11-30T13:35:30.464Z,62.22
2022-11-30T13:41:08.678Z,54.00
2022-11-30T13:43:48.191Z,61.72
2022-11-30T13:46:20.913Z,60.97
2022-11-30T13:48:49.910Z,86.85
2022-11-30T13:51:39.549Z,95.30
2022-11-30T13:54:39.225Z,53.55
2022-11-30T13:57:30.347Z,42.38
2022-11-30T13:59:59.886Z,27.27
2022-11-30T14:02:33.822Z,23.77
2022-11-30T14:05:16.908Z,16.77
2022-11-30T14:07:48.101Z,16.88
2022-11-30T14:10:32.605Z,15.27
2022-11-30T14:13:09.832Z,15.82
2022-11-30T14:18:08.039Z,11.63
2022-11-30T14:20:42.427Z,9.27
2022-11-30T14:23:23.442Z,8.40
2022-11-30T14:25:54.492Z,9.27
2022-11-30T14:29:08.619Z,9.00
2022-11-30T14:31:54.572Z,9.75
2022-11-30T14:34:29.454Z,7.28
2022-11-30T14:37:02.680Z,6.97
2022-11-30T14:39:43.349Z,7.30
2022-11-30T14:42:24.904Z,7.57
2022-11-30T14:44:54.143Z,7.30
2022-11-30T14:47:31.177Z,7.03
2022-11-30T14:50:02.838Z,10.70
2022-11-30T14:52:55.579Z,6.35
2022-11-30T14:55:32.535Z,8.48
2022-11-30T14:58:19.836Z,4.80
2022-11-30T15:00:48.465Z,5.68
2022-11-30T15:03:21.152Z,5.15
2022-11-30T15:05:52.280Z,6.10
2022-11-30T15:08:20.432Z,8.15
2022-11-30T15:10:48.580Z,8.38
2022-11-30T15:13:19.972Z,9.73
2022-11-30T15:15:55.872Z,5.45
2022-11-30T15:18:25.470Z,7.72
2022-11-30T15:21:11.127Z,6.07
2022-11-30T15:23:39.027Z,5.78
2022-11-30T15:26:17.223Z,8.75
2022-11-30T15:29:00.036Z,9.48
2022-11-30T15:31:36.671Z,8.43
2022-11-30T15:34:07.445Z,6.53
2022-11-30T15:36:38.450Z,6.18
2022-11-30T15:39:17.034Z,5.78
2022-11-30T15:41:45.385Z,6.00
2022-11-30T15:44:44.251Z,6.57
2022-11-30T15:47:37.805Z,5.60
2022-11-30T15:50:30.722Z,4.63
2022-11-30T15:53:20.965Z,6.75
2022-11-30T15:55:53.175Z,5.50
2022-11-30T15:58:26.913Z,4.90
2022-11-30T16:01:05.798Z,4.22
2022-11-30T16:03:35.188Z,5.07
2022-11-30T16:06:07.957Z,6.88
2022-11-30T16:08:35.942Z,5.53
2022-11-30T16:11:08.010Z,5.80
2022-11-30T16:13:36.059Z,4.40
2022-11-30T16:16:12.112Z,11.05
2022-11-30T16:18:40.050Z,9.13
2022-11-30T16:21:13.271Z,4.70
2022-11-30T16:23:40.924Z,8.77
2022-11-30T16:29:05.099Z,5.20
2022-11-30T16:31:32.998Z,5.05
2022-11-30T16:34:00.811Z,4.25
2022-11-30T16:36:30.874Z,6.70
2022-11-30T16:39:00.134Z,6.20
2022-11-30T16:41:28.913Z,6.07
2022-11-30T16:43:58.512Z,8.18
2022-11-30T16:46:28.517Z,4.30
2022-11-30T16:48:58.815Z,8.07
2022-11-30T16:51:29.031Z,8.68
2022-11-30T16:53:57.194Z,7.35
2022-11-30T16:56:25.821Z,5.70
2022-11-30T16:58:54.339Z,6.05
2022-11-30T17:01:36.642Z,5.68
2022-11-30T17:04:15.031Z,6.13
2022-11-30T17:06:45.721Z,7.63
2022-11-30T17:09:16.909Z,4.55
2022-11-30T17:11:46.951Z,6.95
2022-11-30T17:14:14.710Z,6.47
2022-11-30T17:16:44.264Z,7.20
2022-11-30T17:19:14.017Z,6.65
2022-11-30T17:21:43.168Z,6.80
2022-11-30T17:24:11.947Z,5.45
2022-11-30T17:26:39.696Z,4.22
2022-11-30T17:29:07.867Z,7.85
2022-11-30T17:31:35.891Z,11.65
2022-11-30T17:34:03.963Z,9.77
2022-11-30T17:36:31.967Z,7.32
2022-11-30T17:38:59.660Z,12.55
2022-11-30T17:41:28.617Z,10.27
2022-11-30T17:43:57.225Z,17.33
2022-11-30T17:46:25.041Z,18.45
2022-11-30T17:48:53.015Z,13.52
2022-11-30T17:51:20.671Z,10.77
2022-11-30T17:53:48.526Z,9.55
2022-11-30T17:56:17.807Z,9.88
2022-11-30T17:58:46.332Z,7.85
2022-11-30T18:01:23.358Z,8.35
2022-11-30T18:06:21.132Z,7.57
2022-11-30T18:08:48.949Z,7.80
2022-11-30T18:11:22.679Z,11.73
2022-11-30T18:13:53.704Z,9.63
2022-11-30T18:16:24.531Z,10.63
2022-11-30T18:18:53.460Z,7.47
2022-11-30T18:21:23.718Z,7.18
2022-11-30T18:23:53.181Z,8.95
2022-11-30T18:26:22.976Z,6.30
2022-11-30T18:28:55.916Z,9.43
2022-11-30T18:31:24.130Z,15.88
2022-11-30T18:33:59.433Z,53.20
2022-11-30T18:36:27.617Z,50.47
2022-11-30T18:38:55.902Z,42.67
2022-11-30T18:41:26.335Z,29.95
2022-11-30T18:43:54.836Z,24.02
2022-11-30T18:46:22.857Z,19.77
2022-11-30T18:48:52.563Z,20.65
2022-11-30T18:51:26.514Z,15.27
2022-11-30T18:53:57.907Z,15.57
2022-11-30T18:56:28.226Z,12.48
2022-11-30T18:59:02.167Z,11.73
2022-11-30T19:01:30.970Z,8.95
2022-11-30T19:04:01.243Z,11.18
2022-11-30T19:06:32.466Z,12.18
2022-11-30T19:09:03.332Z,12.88
2022-11-30T19:11:34.042Z,14.48
2022-11-30T19:14:03.352Z,17.33
2022-11-30T19:16:34.739Z,13.43
2022-11-30T19:19:07.452Z,14.60
2022-11-30T19:21:35.518Z,14.40
2022-11-30T19:24:04.057Z,12.40
2022-11-30T19:26:31.812Z,12.10
2022-11-30T19:28:59.532Z,12.55
2022-11-30T19:31:27.726Z,19.63
2022-11-30T19:33:55.988Z,14.40
2022-11-30T19:36:29.957Z,12.32
2022-11-30T19:38:59.354Z,12.00
2022-11-30T19:41:28.339Z,16.70
2022-11-30T19:44:02.770Z,13.68
2022-11-30T19:46:32.011Z,10.23
2022-11-30T19:49:01.742Z,8.05
2022-11-30T19:51:31.151Z,10.13
2022-11-30T19:54:02.354Z,11.95
2022-11-30T19:56:32.281Z,13.35
2022-11-30T19:59:05.073Z,12.63
2022-11-30T20:01:34.847Z,11.15
2022-11-30T20:04:03.365Z,12.38
2022-11-30T20:06:34.294Z,14.40
2022-11-30T20:09:03.353Z,14.27
2022-11-30T20:11:31.368Z,14.90
2022-11-30T20:14:00.473Z,20.73
2022-11-30T20:16:28.706Z,18.52
2022-11-30T20:19:01.990Z,12.77
2022-11-30T20:21:35.071Z,10.85
2022-11-30T20:24:06.222Z,12.43
2022-11-30T20:26:43.365Z,11.88
2022-11-30T20:29:17.020Z,12.13
2022-11-30T20:31:48.339Z,13.95
2022-11-30T20:34:17.057Z,15.70
2022-11-30T20:36:45.556Z,17.63
2022-11-30T20:39:13.409Z,21.15
2022-11-30T20:41:41.990Z,17.83
2022-11-30T20:44:15.544Z,19.60
2022-11-30T20:46:43.866Z,20.30
2022-11-30T20:49:18.063Z,15.02
2022-11-30T20:51:47.054Z,14.90
2022-11-30T20:54:16.266Z,15.50
2022-11-30T20:56:44.097Z,14.23
2022-11-30T20:59:17.259Z,12.23
2022-11-30T21:01:47.319Z,15.38
2022-11-30T21:04:15.205Z,60.45
2022-11-30T21:06:45.651Z,72.18
2022-11-30T21:09:18.737Z,76.35
2022-11-30T21:11:47.728Z,76.47
2022-11-30T21:14:17.912Z,60.10
2022-11-30T21:16:46.457Z,43.17
2022-11-30T21:19:16.041Z,28.65
2022-11-30T21:21:43.853Z,24.98
2022-11-30T21:24:12.051Z,18.42
2022-11-30T21:26:42.449Z,16.55
2022-11-30T21:29:16.110Z,13.57
2022-11-30T21:31:44.032Z,15.93
2022-11-30T21:34:12.574Z,14.18
2022-11-30T21:36:41.289Z,13.15
2022-11-30T21:39:10.497Z,16.55
2022-11-30T21:41:39.957Z,13.57
2022-11-30T21:44:12.152Z,20.08
2022-11-30T21:46:40.815Z,14.00
2022-11-30T21:49:10.100Z,14.35
2022-11-30T21:51:38.066Z,12.52
2022-11-30T21:54:08.486Z,11.20
2022-11-30T21:56:38.666Z,11.82
2022-11-30T21:59:09.021Z,46.92
2022-11-30T22:01:39.412Z,73.55
2022-11-30T22:04:09.358Z,150.13
2022-11-30T22:06:39.523Z,170.23
2022-11-30T22:09:12.428Z,133.48
2022-11-30T22:11:42.350Z,90.28
2022-11-30T22:14:18.532Z,58.40
2022-11-30T22:16:46.587Z,52.40
2022-11-30T22:19:16.322Z,47.72
2022-11-30T22:21:49.662Z,33.35
2022-11-30T22:24:17.888Z,24.13
2022-11-30T22:26:47.054Z,19.70
2022-11-30T22:29:24.246Z,17.52
2022-11-30T22:31:54.012Z,14.95
2022-11-30T22:34:22.083Z,13.55
2022-11-30T22:36:49.761Z,11.85
2022-11-30T22:39:20.405Z,14.13
2022-11-30T22:41:55.321Z,16.15
2022-11-30T22:44:25.292Z,9.70
2022-11-30T22:46:53.277Z,10.90
2022-11-30T22:49:22.141Z,11.63
2022-11-30T22:51:51.013Z,10.48
2022-11-30T22:54:19.175Z,10.23
2022-11-30T22:56:47.066Z,8.25
2022-11-30T22:59:15.867Z,10.95
2022-11-30T23:01:47.221Z,9.13
2022-11-30T23:04:18.564Z,9.07
2022-11-30T23:06:48.386Z,9.95
2022-11-30T23:09:22.859Z,8.18
2022-11-30T23:11:51.633Z,9.02
2022-11-30T23:14:19.916Z,9.90
2022-11-30T23:16:47.845Z,8.30
2022-11-30T23:19:16.336Z,11.25
2022-11-30T23:21:47.441Z,9.13
2022-11-30T23:24:23.954Z,9.90
2022-11-30T23:26:51.670Z,7.38
2022-11-30T23:29:19.424Z,6.93
2022-11-30T23:31:47.385Z,7.60
2022-11-30T23:34:21.662Z,7.28
2022-11-30T23:36:50.468Z,7.57
2022-11-30T23:39:20.969Z,7.22
2022-11-30T23:41:48.732Z,8.85
2022-11-30T23:44:17.392Z,8.40
2022-11-30T23:46:45.490Z,13.27
2022-11-30T23:49:17.100Z,7.03
2022-11-30T23:51:45.121Z,6.80
2022-11-30T23:54:12.808Z,9.35
2022-11-30T23:56:41.885Z,8.60
2022-11-30T23:59:09.625Z,9.32
